Time;durP1;ratioP1;P1;durP2;ratioP2;P2;SDS_P1;SDS_P2;PMS_P1;PMS_P2;Temp;Humidity;BMP_temperature;BMP_pressure;BME280_temperature;BME280_humidity;BME280_pressure;Samples;Min_cycle;Max_cycle;Signal;HPM_P1;HPM_P2
2023/08/07 00:00:53;;;;;;;9.48;1.60;;;19.50;85.60;;;;;;7383150;19;20018;-77
2023/08/07 00:03:21;;;;;;;15.02;2.08;;;19.50;85.60;;;;;;7380986;19;20014;-78
2023/08/07 00:05:51;;;;;;;8.18;1.98;;;19.40;85.70;;;;;;7381648;19;20023;-76
2023/08/07 00:08:20;;;;;;;3.55;1.60;;;19.40;85.60;;;;;;7401797;19;20362;-77
2023/08/07 00:10:49;;;;;;;9.85;1.75;;;19.40;85.60;;;;;;7381999;19;20030;-76
2023/08/07 00:13:17;;;;;;;11.50;2.13;;;19.30;85.80;;;;;;7384358;19;20030;-76
2023/08/07 00:15:47;;;;;;;4.85;1.55;;;19.30;85.90;;;;;;7385645;19;20039;-76
2023/08/07 00:18:19;;;;;;;6.90;1.85;;;19.20;85.80;;;;;;7381808;19;20007;-77
2023/08/07 00:23:59;;;;;;;14.77;2.67;;;19.20;86.30;;;;;;7381342;19;19999;-76
2023/08/07 00:26:28;;;;;;;6.85;1.92;;;19.20;86.60;;;;;;7401988;19;20027;-77
2023/08/07 00:28:58;;;;;;;11.25;1.98;;;19.20;86.60;;;;;;7380770;19;20563;-76
2023/08/07 00:31:31;;;;;;;8.27;1.58;;;19.20;86.30;;;;;;7381605;19;20027;-75
2023/08/07 00:34:03;;;;;;;3.30;1.42;;;19.20;86.50;;;;;;7380441;19;20074;-76
2023/08/07 00:36:34;;;;;;;3.55;1.60;;;19.20;86.70;;;;;;7381245;19;20365;-76
2023/08/07 00:39:03;;;;;;;6.22;2.10;;;19.20;86.70;;;;;;7382937;19;20007;-77
2023/08/07 00:41:32;;;;;;;10.55;1.77;;;19.20;86.60;;;;;;7385775;19;20032;-77
2023/08/07 00:44:01;;;;;;;7.22;2.00;;;19.10;86.30;;;;;;7401425;19;20011;-77
2023/08/07 00:46:30;;;;;;;7.90;1.70;;;19.10;86.30;;;;;;7380011;19;20013;-76
2023/08/07 00:49:02;;;;;;;8.38;1.60;;;19.10;86.60;;;;;;7382294;19;20374;-77
2023/08/07 00:51:31;;;;;;;8.57;2.00;;;19.00;86.80;;;;;;7381864;19;20006;-76
2023/08/07 00:54:00;;;;;;;12.20;2.30;;;19.00;86.90;;;;;;7379121;19;20395;-77
2023/08/07 00:56:30;;;;;;;7.82;1.58;;;18.90;87.20;;;;;;7401978;19;20010;-77
2023/08/07 00:59:01;;;;;;;7.22;2.00;;;18.80;87.30;;;;;;7380383;19;20007;-77
2023/08/07 01:01:32;;;;;;;5.95;1.70;;;18.80;87.60;;;;;;7380208;19;20006;-78
2023/08/07 01:04:03;;;;;;;14.02;1.90;;;18.80;87.70;;;;;;7379822;19;20003;-77
2023/08/07 01:06:31;;;;;;;;;;;18.70;87.90;;;;;;7386867;19;20003;-76
2023/08/07 01:09:00;;;;;;;;;;;18.70;88.30;;;;;;7390724;19;19911;-77
2023/08/07 01:11:34;;;;;;;;;;;18.60;88.60;;;;;;7406924;19;19911;-77
2023/08/07 01:14:11;;;;;;;9.95;2.05;;;18.60;88.90;;;;;;7395304;19;19939;-77
2023/08/07 01:16:47;;;;;;;9.05;1.90;;;18.50;89.10;;;;;;7382089;19;20009;-77
2023/08/07 01:19:27;;;;;;;10.52;2.20;;;18.50;89.30;;;;;;7379227;19;20255;-77
2023/08/07 01:22:09;;;;;;;4.80;1.77;;;18.50;89.60;;;;;;7379950;19;20027;-77
2023/08/07 01:24:39;;;;;;;6.82;1.90;;;18.50;89.50;;;;;;7378855;19;20354;-77
2023/08/07 01:27:17;;;;;;;8.95;2.30;;;18.50;89.50;;;;;;7379793;19;20010;-77
2023/08/07 01:29:54;;;;;;;8.07;2.13;;;18.50;89.70;;;;;;7378454;19;20016;-77
2023/08/07 01:32:27;;;;;;;11.85;1.95;;;18.50;89.60;;;;;;7401457;19;20002;-77
2023/08/07 01:34:59;;;;;;;6.78;1.98;;;18.60;89.50;;;;;;7378481;19;20063;-77
2023/08/07 01:37:32;;;;;;;7.72;2.30;;;18.50;89.40;;;;;;7378748;19;20015;-77
2023/08/07 01:40:03;;;;;;;17.77;2.33;;;18.40;89.60;;;;;;7383224;19;20003;-77
2023/08/07 01:42:33;;;;;;;4.13;1.60;;;18.40;89.90;;;;;;7378721;19;20009;-76
2023/08/07 01:45:01;;;;;;;11.32;2.33;;;18.40;90.00;;;;;;7378371;19;20055;-76
2023/08/07 01:47:30;;;;;;;11.38;2.33;;;18.20;90.10;;;;;;7401289;19;20047;-75
2023/08/07 01:49:59;;;;;;;7.53;2.20;;;18.20;90.40;;;;;;7378118;19;20035;-76
2023/08/07 01:52:31;;;;;;;7.78;1.90;;;18.10;90.40;;;;;;7378688;19;20074;-76
2023/08/07 01:54:59;;;;;;;;;;;18.10;90.50;;;;;;7378903;19;20011;-77
2023/08/07 01:57:28;;;;;;;7.40;2.30;;;18.10;90.50;;;;;;7380861;19;19907;-76
2023/08/07 01:59:57;;;;;;;7.97;2.20;;;18.10;90.60;;;;;;7378231;19;20016;-77
2023/08/07 02:02:26;;;;;;;11.82;2.33;;;18.10;90.60;;;;;;7397967;19;20228;-75
2023/08/07 02:04:55;;;;;;;10.35;2.33;;;18.10;90.70;;;;;;7376625;19;20009;-77
2023/08/07 02:07:23;;;;;;;8.70;2.00;;;18.10;90.70;;;;;;7377668;19;20066;-75
2023/08/07 02:09:55;;;;;;;5.45;2.13;;;18.10;90.80;;;;;;7378839;19;20007;-76
2023/08/07 02:12:24;;;;;;;10.32;2.35;;;18.00;90.90;;;;;;7377448;19;20007;-76
2023/08/07 02:14:53;;;;;;;8.55;1.80;;;18.10;91.00;;;;;;7381408;19;20312;-77
2023/08/07 02:17:24;;;;;;;6.22;2.30;;;18.20;90.90;;;;;;7397493;19;20012;-76
2023/08/07 02:19:52;;;;;;;7.78;2.30;;;18.20;90.80;;;;;;7376494;19;20027;-75
2023/08/07 02:22:21;;;;;;;5.60;2.45;;;18.20;90.80;;;;;;7377370;19;20023;-77
2023/08/07 02:24:53;;;;;;;9.40;1.90;;;18.30;90.70;;;;;;7376888;19;20446;-77
2023/08/07 02:27:24;;;;;;;6.55;1.95;;;18.30;90.70;;;;;;7378037;19;20003;-77
2023/08/07 02:29:53;;;;;;;7.00;2.00;;;18.30;90.70;;;;;;7376782;19;20058;-77
2023/08/07 02:32:22;;;;;;;5.28;2.40;;;18.40;90.70;;;;;;7407572;19;20015;-76
2023/08/07 02:34:51;;;;;;;7.80;2.30;;;18.40;90.70;;;;;;7384501;19;20006;-77
2023/08/07 02:37:20;;;;;;;7.50;2.13;;;18.40;90.50;;;;;;7384265;19;20011;-77
2023/08/07 02:39:49;;;;;;;8.65;2.47;;;18.40;90.40;;;;;;7385052;19;20421;-76
2023/08/07 02:42:18;;;;;;;6.55;2.75;;;18.40;90.40;;;;;;7386608;19;20086;-76
2023/08/07 02:44:50;;;;;;;6.18;2.53;;;18.40;90.40;;;;;;7382726;19;20031;-76
2023/08/07 02:47:19;;;;;;;4.75;1.88;;;18.40;90.40;;;;;;7407692;19;20027;-75
2023/08/07 02:49:48;;;;;;;5.13;2.08;;;18.40;90.40;;;;;;7383446;19;20011;-77
2023/08/07 02:52:17;;;;;;;5.40;2.30;;;18.40;90.40;;;;;;7382951;19;20370;-76
2023/08/07 02:54:45;;;;;;;10.35;2.33;;;18.40;90.30;;;;;;7383516;19;20002;-76
2023/08/07 02:57:14;;;;;;;8.77;2.15;;;18.40;90.30;;;;;;7383270;19;20003;-76
2023/08/07 02:59:43;;;;;;;9.07;2.08;;;18.40;90.30;;;;;;7381336;19;20019;-77
2023/08/07 03:02:14;;;;;;;6.30;1.98;;;18.40;90.20;;;;;;7405157;19;20003;-76
2023/08/07 03:04:43;;;;;;;10.15;2.20;;;18.40;90.20;;;;;;7384931;19;20030;-76
2023/08/07 03:07:11;;;;;;;7.97;2.25;;;18.40;90.30;;;;;;7383725;19;20003;-76
2023/08/07 03:09:40;;;;;;;5.95;2.20;;;18.40;90.30;;;;;;7384333;19;20007;-76
2023/08/07 03:12:10;;;;;;;6.57;2.08;;;18.40;90.30;;;;;;7383364;19;20015;-75
2023/08/07 03:14:38;;;;;;;6.22;2.17;;;18.30;90.30;;;;;;7383237;19;20016;-75
2023/08/07 03:17:08;;;;;;;8.93;2.60;;;18.30;90.30;;;;;;7404877;19;20011;-76
2023/08/07 03:19:39;;;;;;;10.30;2.70;;;18.30;90.40;;;;;;7384539;19;20024;-76
2023/08/07 03:22:08;;;;;;;8.68;2.22;;;18.20;90.20;;;;;;7391708;19;20003;-77
2023/08/07 03:24:37;;;;;;;6.93;2.05;;;18.30;90.20;;;;;;7388123;19;20010;-77
2023/08/07 03:27:06;;;;;;;6.07;2.55;;;18.20;90.10;;;;;;7388460;19;20015;-76
2023/08/07 03:29:35;;;;;;;7.45;3.35;;;18.20;90.20;;;;;;7391593;19;20015;-76
2023/08/07 03:32:04;;;;;;;8.77;3.85;;;18.20;90.30;;;;;;7410019;19;20010;-77
2023/08/07 03:34:33;;;;;;;10.70;4.10;;;18.20;90.40;;;;;;7383035;19;20227;-77
2023/08/07 03:37:04;;;;;;;9.57;4.00;;;18.10;90.50;;;;;;7383739;19;20353;-76
2023/08/07 03:39:33;;;;;;;;;;;18.10;90.40;;;;;;7384679;19;20007;-77
2023/08/07 03:42:01;;;;;;;11.73;3.72;;;18.10;90.40;;;;;;7383762;19;19903;-76
2023/08/07 03:44:30;;;;;;;11.65;3.47;;;18.10;90.30;;;;;;7406152;19;20014;-76
2023/08/07 03:46:59;;;;;;;17.25;3.78;;;18.00;90.30;;;;;;7380357;19;20237;-75
2023/08/07 03:49:27;;;;;;;9.90;4.03;;;18.00;90.10;;;;;;7382018;19;20016;-76
2023/08/07 03:51:59;;;;;;;15.40;3.60;;;18.00;90.20;;;;;;7382656;19;20026;-76
2023/08/07 03:54:30;;;;;;;12.05;3.38;;;18.00;90.30;;;;;;7383565;19;20369;-76
2023/08/07 03:56:59;;;;;;;8.10;3.38;;;17.90;90.40;;;;;;7386885;19;20357;-76
2023/08/07 03:59:27;;;;;;;11.63;3.25;;;17.90;90.60;;;;;;7407306;19;20252;-76
2023/08/07 04:01:56;;;;;;;9.50;3.90;;;17.90;90.50;;;;;;7381886;19;20369;-77
2023/08/07 04:04:25;;;;;;;8.35;3.50;;;17.90;90.50;;;;;;7381623;19;20002;-76
2023/08/07 04:06:56;;;;;;;14.93;3.42;;;17.90;90.60;;;;;;7381616;19;20011;-76
2023/08/07 04:09:24;;;;;;;8.57;3.63;;;17.90;90.70;;;;;;7382461;19;20054;-77
2023/08/07 04:11:56;;;;;;;13.38;3.38;;;17.90;90.70;;;;;;7382942;19;20019;-76
2023/08/07 04:14:25;;;;;;;7.20;2.72;;;17.90;90.80;;;;;;7401246;19;20007;-76
2023/08/07 04:16:56;;;;;;;8.75;3.38;;;17.90;90.80;;;;;;7381249;19;20003;-76
2023/08/07 04:19:25;;;;;;;;;;;17.90;90.90;;;;;;7382543;19;20015;-76
2023/08/07 04:21:53;;;;;;;11.10;2.97;;;17.90;91.10;;;;;;7381338;19;19911;-76
2023/08/07 04:24:22;;;;;;;11.75;3.38;;;17.90;90.80;;;;;;7381012;19;20019;-76
2023/08/07 04:26:51;;;;;;;14.63;3.53;;;18.00;90.60;;;;;;7380126;19;20012;-75
2023/08/07 04:29:23;;;;;;;9.05;3.33;;;18.00;90.50;;;;;;7402507;19;20011;-76
2023/08/07 04:31:51;;;;;;;10.05;3.22;;;18.00;90.50;;;;;;7380602;19;20007;-76
2023/08/07 04:34:20;;;;;;;7.93;3.00;;;18.00;90.60;;;;;;7383107;19;20289;-77
2023/08/07 04:36:50;;;;;;;12.02;3.08;;;18.00;90.60;;;;;;7381097;19;20035;-75
2023/08/07 04:39:18;;;;;;;6.45;2.78;;;18.00;90.60;;;;;;7381551;19;19998;-75
2023/08/07 04:41:49;;;;;;;9.57;3.03;;;18.00;90.70;;;;;;7381035;19;20003;-76
2023/08/07 04:44:18;;;;;;;10.20;2.95;;;18.10;90.70;;;;;;7401517;19;20014;-76
2023/08/07 04:46:50;;;;;;;9.77;2.65;;;18.10;90.80;;;;;;7380919;19;20030;-77
2023/08/07 04:49:18;;;;;;;;;;;18.10;90.80;;;;;;7380921;19;20003;-76
2023/08/07 04:51:47;;;;;;;11.00;3.10;;;18.10;90.70;;;;;;7380102;19;20158;-77
2023/08/07 04:54:16;;;;;;;7.07;3.10;;;18.20;90.70;;;;;;7379380;19;20322;-77
2023/08/07 04:56:44;;;;;;;12.90;3.20;;;18.20;90.80;;;;;;7380685;19;20020;-76
2023/08/07 04:59:13;;;;;;;10.20;2.90;;;18.10;90.80;;;;;;7402958;19;20013;-76
2023/08/07 05:01:42;;;;;;;9.98;2.95;;;18.20;91.00;;;;;;7380844;19;20024;-76
2023/08/07 05:04:14;;;;;;;9.23;3.33;;;18.20;91.00;;;;;;7384281;19;20061;-77
2023/08/07 05:06:42;;;;;;;9.75;3.00;;;18.20;90.90;;;;;;7377050;19;20006;-77
2023/08/07 05:09:11;;;;;;;9.27;3.00;;;18.30;91.00;;;;;;7379279;19;19999;-77
2023/08/07 05:11:40;;;;;;;9.10;2.88;;;18.30;91.00;;;;;;7379211;19;20011;-77
2023/08/07 05:14:08;;;;;;;15.25;3.63;;;18.30;91.10;;;;;;7401523;19;20011;-77
2023/08/07 05:16:37;;;;;;;16.73;4.82;;;18.40;91.10;;;;;;7383325;19;20010;-77
2023/08/07 05:19:08;;;;;;;14.00;3.53;;;18.40;91.50;;;;;;7378678;19;20003;-77
2023/08/07 05:21:39;;;;;;;20.10;4.10;;;18.40;91.80;;;;;;7381406;19;20030;-77
2023/08/07 05:24:08;;;;;;;12.57;4.03;;;18.40;91.80;;;;;;7379293;19;20006;-76
2023/08/07 05:26:37;;;;;;;13.18;4.82;;;18.50;92.00;;;;;;7378242;19;20010;-75
2023/08/07 05:29:06;;;;;;;21.85;5.25;;;18.50;92.10;;;;;;7400883;19;20018;-75
2023/08/07 05:31:36;;;;;;;21.15;5.50;;;18.50;92.30;;;;;;7378901;19;20218;-75
2023/08/07 05:34:04;;;;;;;22.88;5.47;;;18.50;92.40;;;;;;7378947;19;20006;-75
2023/08/07 05:36:33;;;;;;;19.70;5.63;;;18.50;92.50;;;;;;7380423;19;20002;-75
2023/08/07 05:39:05;;;;;;;26.83;5.30;;;18.50;92.70;;;;;;7385370;19;20003;-75
2023/08/07 05:41:34;;;;;;;26.40;6.10;;;18.50;92.90;;;;;;7382467;19;20017;-76
2023/08/07 05:44:02;;;;;;;25.20;6.78;;;18.50;93.10;;;;;;7401292;19;20010;-76
2023/08/07 05:46:31;;;;;;;27.35;6.78;;;18.40;93.60;;;;;;7381541;19;20417;-76
2023/08/07 05:49:00;;;;;;;25.48;7.10;;;18.40;93.30;;;;;;7380736;19;20042;-76
2023/08/07 05:51:29;;;;;;;19.23;6.90;;;18.40;93.40;;;;;;7379561;19;20006;-76
2023/08/07 05:53:57;;;;;;;23.08;7.25;;;18.40;93.50;;;;;;7378906;19;20025;-75
2023/08/07 05:56:31;;;;;;;22.33;6.72;;;18.40;93.80;;;;;;7400481;19;20011;-76
2023/08/07 05:58:59;;;;;;;24.15;7.15;;;18.50;93.80;;;;;;7377620;19;20091;-76
2023/08/07 06:01:30;;;;;;;18.48;6.88;;;18.30;93.90;;;;;;7378535;19;20138;-76
2023/08/07 06:03:59;;;;;;;24.42;6.47;;;18.50;94.30;;;;;;7379444;19;20424;-76
2023/08/07 06:06:28;;;;;;;26.77;7.32;;;18.50;94.00;;;;;;7380485;19;20148;-76
2023/08/07 06:08:57;;;;;;;28.73;7.35;;;18.50;93.90;;;;;;7384187;19;20003;-76
2023/08/07 06:11:28;;;;;;;13.02;6.90;;;18.40;94.10;;;;;;7409130;19;20021;-76
2023/08/07 06:13:57;;;;;;;20.48;7.90;;;18.40;94.20;;;;;;7386066;19;20279;-76
2023/08/07 06:16:27;;;;;;;20.88;6.40;;;18.40;94.10;;;;;;7384931;19;20002;-76
2023/08/07 06:18:55;;;;;;;23.30;7.28;;;18.50;94.10;;;;;;7384564;19;20003;-76
2023/08/07 06:21:24;;;;;;;21.50;6.88;;;18.50;94.10;;;;;;7386439;19;20007;-76
2023/08/07 06:23:54;;;;;;;20.35;7.25;;;18.20;94.30;;;;;;7385646;19;20031;-76
2023/08/07 06:26:23;;;;;;;18.90;7.07;;;18.30;94.40;;;;;;7408758;19;20027;-77
2023/08/07 06:28:54;;;;;;;21.08;8.07;;;18.20;94.60;;;;;;7386756;19;20011;-76
2023/08/07 06:31:23;;;;;;;23.15;8.30;;;18.20;94.60;;;;;;7385061;19;20011;-76
2023/08/07 06:33:52;;;;;;;22.40;7.93;;;18.30;94.60;;;;;;7384952;19;20003;-76
2023/08/07 06:36:21;;;;;;;24.10;8.07;;;18.30;94.60;;;;;;7385445;19;20006;-76
2023/08/07 06:38:50;;;;;;;19.83;8.25;;;18.30;94.50;;;;;;7384221;19;20006;-75
2023/08/07 06:41:20;;;;;;;20.73;8.15;;;18.40;94.50;;;;;;7404307;19;20382;-75
2023/08/07 06:43:49;;;;;;;22.35;8.20;;;18.40;94.60;;;;;;7383072;19;20067;-75
2023/08/07 06:46:24;;;;;;;23.23;8.57;;;18.20;94.50;;;;;;7387314;19;20031;-76
2023/08/07 06:48:52;;;;;;;16.83;7.70;;;18.30;94.70;;;;;;7384254;19;20022;-77
2023/08/07 06:51:21;;;;;;;25.55;7.78;;;18.30;94.60;;;;;;7384599;19;20377;-76
2023/08/07 06:53:50;;;;;;;17.77;8.38;;;18.30;94.50;;;;;;7382912;19;20073;-75
2023/08/07 06:56:43;;;;;;;21.52;7.93;;;18.30;94.50;;;;;;7406630;19;20010;-81
2023/08/07 06:59:12;;;;;;;15.60;7.53;;;18.10;94.80;;;;;;7385642;19;20363;-76
2023/08/07 07:01:43;;;;;;;25.42;8.73;;;18.30;94.80;;;;;;7380652;19;20067;-75
2023/08/07 07:04:12;;;;;;;18.52;8.52;;;18.20;94.80;;;;;;7381304;19;20409;-75
2023/08/07 07:06:41;;;;;;;26.02;8.43;;;18.10;94.80;;;;;;7380186;19;20063;-77
2023/08/07 07:09:10;;;;;;;29.50;9.95;;;18.20;95.00;;;;;;7382522;19;20020;-76
2023/08/07 07:18:07;;;;;;;18.98;7.32;;;18.40;95.10;;;;;;7384611;19;20015;-81
2023/08/07 07:21:13;;;;;;;17.65;7.80;;;18.40;94.80;;;;;;7391181;19;20010;-81
2023/08/07 07:23:43;;;;;;;22.13;7.90;;;18.50;94.70;;;;;;7391328;19;20062;-79
2023/08/07 07:26:15;;;;;;;22.45;7.10;;;18.70;94.50;;;;;;7406522;19;20011;-81
2023/08/07 07:29:03;;;;;;;22.83;6.95;;;18.90;94.40;;;;;;7386199;19;20006;-81
2023/08/07 07:31:32;;;;;;;23.70;7.40;;;19.00;93.90;;;;;;7385777;19;20007;-80
2023/08/07 07:34:03;;;;;;;16.58;7.47;;;18.90;93.90;;;;;;7384519;19;20405;-78
2023/08/07 07:36:35;;;;;;;;;;;18.90;93.80;;;;;;7388837;19;20251;-79
2023/08/07 07:39:07;;;;;;;;;;;19.10;93.80;;;;;;7385800;19;20240;-77
2023/08/07 07:41:39;;;;;;;15.27;6.45;;;19.20;93.60;;;;;;7385409;19;20051;-79
2023/08/07 07:44:08;;;;;;;20.23;7.22;;;19.30;93.40;;;;;;7404318;19;20094;-77
2023/08/07 07:46:36;;;;;;;16.50;7.00;;;19.40;93.10;;;;;;7381271;19;20022;-76
2023/08/07 07:49:15;;;;;;;18.25;7.53;;;19.30;93.10;;;;;;7384767;19;20373;-81
2023/08/07 07:55:31;;;;;;;17.20;6.88;;;19.10;93.00;;;;;;7386173;19;20006;-82
2023/08/07 07:58:02;;;;;;;22.58;6.65;;;19.20;93.20;;;;;;7394823;19;20027;-77
2023/08/07 08:00:45;;;;;;;11.27;6.47;;;19.30;93.20;;;;;;7391923;19;20002;-80
2023/08/07 08:03:32;;;;;;;17.95;5.95;;;19.10;93.20;;;;;;7393207;19;20018;-78
2023/08/07 08:39:30;;;;;;;10.07;4.72;;;19.40;92.50;;;;;;7403403;19;20011;-79
2023/08/07 08:42:02;;;;;;;13.57;5.95;;;19.50;92.60;;;;;;7381936;19;20390;-80
2023/08/07 08:45:23;;;;;;;14.68;6.43;;;19.40;92.70;;;;;;7403269;19;20070;-81
2023/08/07 08:51:40;;;;;;;11.68;4.93;;;19.20;92.90;;;;;;7407811;19;20001;-86
2023/08/07 09:14:00;;;;;;;14.55;4.60;;;19.70;91.70;;;;;;7400894;19;20251;-80
2023/08/07 09:16:35;;;;;;;;;;;19.70;91.30;;;;;;7379940;19;20035;-77
2023/08/07 10:13:48;;;;;;;9.65;3.00;;;20.40;88.40;;;;;;7321282;19;21256;-81
2023/08/07 10:16:17;;;;;;;6.97;3.10;;;20.40;86.80;;;;;;7383054;19;20003;-77
2023/08/07 10:18:46;;;;;;;6.88;3.10;;;20.20;86.70;;;;;;7389086;19;20023;-79
2023/08/07 10:29:07;;;;;;;7.15;2.90;;;20.50;85.10;;;;;;7381271;19;20031;-78
2023/08/07 10:31:41;;;;;;;5.93;2.90;;;20.40;84.60;;;;;;7402189;19;20256;-82
2023/08/07 10:46:16;;;;;;;12.43;2.60;;;20.40;82.60;;;;;;7339098;19;20003;-78
2023/08/07 10:49:01;;;;;;;7.65;2.50;;;20.60;82.40;;;;;;7380018;19;20034;-80
2023/08/07 12:05:45;;;;;;;4.40;2.33;;;21.80;78.30;;;;;;7434785;19;20028;-78
2023/08/07 12:08:14;;;;;;;6.53;2.30;;;21.90;76.60;;;;;;7411430;19;20011;-79
2023/08/07 12:10:44;;;;;;;10.30;2.70;;;22.10;76.60;;;;;;7431898;19;20757;-78
2023/08/07 12:13:15;;;;;;;5.47;2.33;;;22.20;76.40;;;;;;7411112;19;20019;-78
2023/08/07 12:15:44;;;;;;;3.05;2.15;;;22.20;75.50;;;;;;7379897;19;20011;-78
2023/08/07 12:18:14;;;;;;;8.82;2.58;;;22.10;75.30;;;;;;7381650;19;20003;-77
2023/08/07 12:20:46;;;;;;;4.13;2.08;;;22.20;75.50;;;;;;7385681;19;20011;-78
2023/08/07 12:23:21;;;;;;;4.18;2.33;;;22.30;75.20;;;;;;7405340;19;20014;-79
2023/08/07 12:25:50;;;;;;;4.95;2.53;;;22.30;75.60;;;;;;7386220;19;20011;-80
2023/08/07 12:28:32;;;;;;;4.50;2.55;;;22.30;75.10;;;;;;7388150;19;20022;-79
2023/08/07 12:31:06;;;;;;;5.85;2.10;;;22.40;75.60;;;;;;7389023;19;20037;-80
2023/08/07 12:33:36;;;;;;;6.47;2.55;;;22.40;74.30;;;;;;7388347;19;20018;-78
2023/08/07 12:57:49;;;;;;;4.35;1.98;;;22.60;72.40;;;;;;7367031;19;20002;-78
2023/08/07 13:00:19;;;;;;;10.10;1.88;;;22.60;71.60;;;;;;7384704;19;20010;-78
2023/08/07 13:03:00;;;;;;;5.65;1.60;;;22.80;71.40;;;;;;7407687;19;20033;-83
2023/08/07 13:05:32;;;;;;;4.75;1.75;;;22.90;70.40;;;;;;7409738;19;20015;-80
2023/08/07 13:13:57;;;;;;;;;;;23.10;69.90;;;;;;7384824;19;19907;-81
2023/08/07 13:28:15;;;;;;;2.33;1.70;;;23.70;67.00;;;;;;7350417;19;20010;-78
2023/08/07 13:34:07;;;;;;;3.63;2.30;;;24.00;66.70;;;;;;7389370;19;20128;-77
2023/08/07 13:39:49;;;;;;;3.17;1.73;;;24.10;66.60;;;;;;7387397;19;19995;-77
2023/08/07 13:42:18;;;;;;;2.60;1.60;;;24.00;67.40;;;;;;7380345;19;20009;-77
2023/08/07 13:44:47;;;;;;;3.72;2.00;;;23.90;66.20;;;;;;7381038;19;20041;-80
2023/08/07 13:58:11;;;;;;;4.20;1.70;;;24.40;65.50;;;;;;7340328;19;20017;-77
2023/08/07 14:00:40;;;;;;;3.25;1.80;;;24.50;64.10;;;;;;7381891;19;20420;-78
2023/08/07 14:03:09;;;;;;;3.30;1.80;;;24.50;64.60;;;;;;7382823;19;20436;-77
2023/08/07 14:05:50;;;;;;;6.45;1.60;;;24.60;64.80;;;;;;7412200;19;20007;-84
2023/08/07 14:08:25;;;;;;;3.00;1.50;;;24.80;63.10;;;;;;7388181;19;20007;-91
2023/08/07 14:10:56;;;;;;;3.33;1.70;;;24.80;61.40;;;;;;7385115;19;20027;-79
2023/08/07 14:23:00;;;;;;;4.30;1.80;;;25.10;61.70;;;;;;7387150;19;20401;-76
2023/08/07 14:25:29;;;;;;;7.75;2.00;;;25.00;60.40;;;;;;7380492;19;20039;-76
2023/08/07 14:28:00;;;;;;;2.33;1.40;;;25.00;61.00;;;;;;7380502;19;20301;-79
2023/08/07 14:30:31;;;;;;;3.17;1.38;;;25.00;61.00;;;;;;7377539;19;20373;-76
2023/08/07 14:33:00;;;;;;;5.10;1.80;;;24.90;61.00;;;;;;7380817;19;20378;-78
2023/08/07 14:35:29;;;;;;;3.08;1.17;;;24.60;61.40;;;;;;7401581;19;20098;-78
2023/08/07 14:47:04;;;;;;;2.63;1.17;;;24.00;64.50;;;;;;7368264;19;20024;-80
2023/08/07 14:55:55;;;;;;;6.22;1.70;;;23.70;64.70;;;;;;7406072;19;20011;-78
2023/08/07 14:58:24;;;;;;;3.08;1.52;;;23.60;65.10;;;;;;7395681;19;20029;-78
2023/08/07 15:00:56;;;;;;;3.90;1.52;;;23.60;65.10;;;;;;7387156;19;20014;-77
2023/08/07 15:03:27;;;;;;;2.00;1.38;;;23.70;66.10;;;;;;7382437;19;20012;-77
2023/08/07 15:05:58;;;;;;;3.33;1.42;;;23.70;65.60;;;;;;7381641;19;20018;-79
2023/08/07 15:08:27;;;;;;;6.53;1.70;;;23.60;65.50;;;;;;7403036;19;20011;-78
2023/08/07 15:11:01;;;;;;;6.45;1.48;;;23.40;65.70;;;;;;7381112;19;20223;-76
2023/08/07 15:36:25;;;;;;;;;;;23.30;64.90;;;;;;7378793;19;19918;-78
2023/08/07 15:38:56;;;;;;;;;;;23.30;64.50;;;;;;7378620;19;19924;-80
2023/08/07 15:41:25;;;;;;;;;;;23.30;66.10;;;;;;7402329;19;19958;-77
2023/08/07 15:43:53;;;;;;;;;;;23.20;65.50;;;;;;7377745;19;19919;-77
2023/08/07 15:46:22;;;;;;;;;;;23.30;65.50;;;;;;7379514;19;19907;-80
2023/08/07 15:48:51;;;;;;;;;;;23.30;66.30;;;;;;7381157;19;19903;-81
2023/08/07 15:51:25;;;;;;;;;;;23.50;66.30;;;;;;7387248;19;20169;-79
2023/08/07 15:53:57;;;;;;;;;;;23.60;66.80;;;;;;7384481;19;19915;-79
2023/08/07 15:56:26;;;;;;;;;;;23.70;66.20;;;;;;7406506;19;19934;-76
2023/08/07 16:02:14;;;;;;;;;;;;;;;;;;;;;
2023/08/07 16:16:40;;;;;;;;;;;24.30;62.70;;;;;;7381355;19;19923;-76
2023/08/07 16:19:11;;;;;;;;;;;24.00;62.90;;;;;;7383196;19;19907;-77
2023/08/07 16:21:41;;;;;;;;;;;23.90;63.20;;;;;;7385202;19;20021;-77
2023/08/07 16:24:11;;;;;;;;;;;24.00;63.40;;;;;;7383827;19;19907;-77
2023/08/07 16:26:39;;;;;;;;;;;23.90;62.80;;;;;;7384430;19;19910;-77
2023/08/07 16:29:13;;;;;;;;;;;23.90;64.30;;;;;;7406102;19;20259;-77
2023/08/07 16:31:53;;;;;;;;;;;23.90;65.00;;;;;;7383003;19;19939;-77
2023/08/07 16:34:21;;;;;;;;;;;24.00;65.90;;;;;;7384678;19;19922;-77
2023/08/07 16:36:50;;;;;;;;;;;24.10;65.40;;;;;;7383594;19;19907;-78
2023/08/07 16:39:18;;;;;;;;;;;24.30;65.60;;;;;;7384402;19;19911;-77
2023/08/07 16:41:47;;;;;;;;;;;24.40;65.00;;;;;;7385061;19;19931;-78
2023/08/07 16:44:15;;;;;;;;;;;24.30;64.70;;;;;;7405160;19;19918;-77
2023/08/07 16:46:48;;;;;;;;;;;24.40;64.70;;;;;;7386283;19;19910;-78
2023/08/07 16:49:17;;;;;;;;;;;24.30;63.60;;;;;;7386888;19;19910;-77
2023/08/07 16:51:47;;;;;;;;;;;24.10;64.10;;;;;;7386203;19;20234;-77
2023/08/07 16:54:17;;;;;;;;;;;24.00;64.30;;;;;;7385111;19;19910;-77
2023/08/07 16:59:34;;;;;;;;;;;23.90;64.90;;;;;;7384289;19;19939;-77
2023/08/07 17:02:12;;;;;;;;;;;23.90;65.90;;;;;;7408291;19;19938;-77
2023/08/07 17:04:41;;;;;;;;;;;24.00;66.00;;;;;;7388121;19;19907;-77
2023/08/07 17:07:09;;;;;;;;;;;24.10;65.60;;;;;;7390315;19;19910;-77
2023/08/07 17:09:40;;;;;;;;;;;24.30;65.10;;;;;;7390257;19;19911;-77
2023/08/07 17:12:12;;;;;;;;;;;24.40;64.70;;;;;;7391388;19;19907;-77
2023/08/07 17:14:43;;;;;;;;;;;24.40;64.80;;;;;;7391376;19;19911;-78
2023/08/07 17:17:14;;;;;;;;;;;24.40;64.70;;;;;;7408248;19;19921;-77
2023/08/07 17:19:43;;;;;;;;;;;24.10;65.00;;;;;;7384701;19;19910;-77
2023/08/07 17:22:11;;;;;;;;;;;24.00;65.20;;;;;;7385065;19;20178;-77
2023/08/07 17:24:40;;;;;;;;;;;24.00;65.60;;;;;;7384759;19;19915;-77
2023/08/07 17:27:11;;;;;;;;;;;23.90;66.80;;;;;;7386013;19;19914;-78
2023/08/07 17:29:43;;;;;;;;;;;23.90;67.20;;;;;;7386124;19;19910;-77
2023/08/07 17:32:11;;;;;;;;;;;23.80;67.80;;;;;;7406059;19;19939;-77
2023/08/07 17:34:42;;;;;;;;;;;23.80;67.60;;;;;;7384332;19;20238;-77
2023/08/07 17:37:16;;;;;;;;;;;23.80;67.80;;;;;;7390573;19;19907;-78
2023/08/07 17:40:00;;;;;;;;;;;;;;;;;;;;;
2023/08/07 17:42:49;;;;;;;;;;;23.70;68.10;;;;;;7384277;19;20157;-77
2023/08/07 17:45:18;;;;;;;;;;;23.60;68.40;;;;;;7383045;19;19907;-77
2023/08/07 17:47:46;;;;;;;;;;;23.70;69.00;;;;;;7385269;19;19914;-77
2023/08/07 17:50:17;;;;;;;;;;;23.70;69.00;;;;;;7403541;19;19907;-77
2023/08/07 17:52:48;;;;;;;;;;;23.60;69.90;;;;;;7383982;19;19911;-77
2023/08/07 17:55:25;;;;;;;;;;;23.60;69.80;;;;;;7384997;19;19934;-77
2023/08/07 17:57:54;;;;;;;;;;;23.50;70.50;;;;;;7385907;19;20156;-78
2023/08/07 18:00:22;;;;;;;;;;;23.40;69.30;;;;;;7383645;19;19911;-76
2023/08/07 18:02:51;;;;;;;;;;;23.30;69.30;;;;;;7385209;19;19949;-77
2023/08/07 18:05:22;;;;;;;;;;;23.30;69.80;;;;;;7404604;19;19926;-78
2023/08/07 18:07:50;;;;;;;;;;;23.20;70.30;;;;;;7383134;19;19915;-76
2023/08/07 18:10:21;;;;;;;;;;;23.20;70.40;;;;;;7383767;19;19915;-75
2023/08/07 18:12:49;;;;;;;;;;;23.20;70.80;;;;;;7381946;19;20253;-76
2023/08/07 18:15:18;;;;;;;;;;;23.20;70.70;;;;;;7383851;19;19911;-77
2023/08/07 18:17:50;;;;;;;;;;;23.20;70.90;;;;;;7382357;19;19966;-77
2023/08/07 18:20:22;;;;;;;;;;;23.20;71.30;;;;;;7404520;19;20160;-77
2023/08/07 18:22:52;;;;;;;;;;;23.10;72.00;;;;;;7382013;19;19928;-76
2023/08/07 18:25:23;;;;;;;;;;;23.10;72.20;;;;;;7383170;19;19926;-76
2023/08/07 18:27:54;;;;;;;;;;;23.10;73.10;;;;;;7383802;19;19918;-76
2023/08/07 18:30:26;;;;;;;;;;;23.00;73.50;;;;;;7381246;19;19924;-77
2023/08/07 18:32:56;;;;;;;;;;;23.00;74.40;;;;;;7382272;19;19906;-76
2023/08/07 18:35:29;;;;;;;;;;;23.00;74.10;;;;;;7405478;19;19910;-77
2023/08/07 18:37:58;;;;;;;;;;;22.90;74.00;;;;;;7384181;19;19903;-76
2023/08/07 18:40:26;;;;;;;;;;;22.90;73.90;;;;;;7382231;19;20158;-77
2023/08/07 18:42:55;;;;;;;;;;;22.90;73.20;;;;;;7383216;19;19907;-76
2023/08/07 18:45:26;;;;;;;;;;;22.80;73.40;;;;;;7382243;19;19928;-77
2023/08/07 18:47:54;;;;;;;;;;;22.80;73.80;;;;;;7382148;19;19911;-77
2023/08/07 18:50:23;;;;;;;;;;;22.70;73.60;;;;;;7404339;19;19918;-77
2023/08/07 18:52:56;;;;;;;;;;;22.50;72.90;;;;;;7381052;19;19911;-76
2023/08/07 18:55:25;;;;;;;;;;;22.60;73.10;;;;;;7381314;19;19947;-77
2023/08/07 18:57:53;;;;;;;;;;;22.50;73.30;;;;;;7382474;19;19907;-76
2023/08/07 19:00:25;;;;;;;;;;;22.50;73.30;;;;;;7381710;19;19907;-76
2023/08/07 19:02:53;;;;;;;;;;;22.50;73.10;;;;;;7382235;19;19935;-76
2023/08/07 19:05:22;;;;;;;;;;;22.40;73.10;;;;;;7401115;19;19924;-76
2023/08/07 19:07:50;;;;;;;;;;;22.40;73.40;;;;;;7380794;19;19918;-77